• Join FlightAware (Why Join?)
  • Login
  • US Flag 
06:54PM EDT


 

Airport Tracker/Info


-or-


 

Live Flight TrackerFlight Track Log ✈ EGF3681 ✈ 28-Jun-2013 ✈ KORD - KDAY

Flight Track Log - Related Links

Times and Time Zones

All times are in EDT time to prevent confusion due to time zone crossing. See the EGF3681 flight status page for this flight to view local times or setup timezone preferences in your user account.

Time Position Orientation Groundspeed Altitude Reporting Facility
EDT Latitude Longitude Course Direction KTS MPH feet Rate Location/Type
12:25AM 42.0000 -87.9500 323° Northwest 164 189 1,700  Level Chicago TRACON
12:26AM 42.0333 -87.9833 323° Northwest 201 231 3,300 1,560 Climbing Chicago TRACON
12:27AM 42.0833 -87.9667 14° North 244 281 4,900 1,380 Climbing Chicago TRACON
12:28AM 42.1500 -87.9167 29° Northeast 263 303 6,200 1,680 Climbing Chicago TRACON
12:29AM 42.1875 -87.8661 45° Northeast 258 297 7,800 1,980 Climbing Chicago Center
12:30AM 42.1886 -87.7692 89° East 282 325 9,600 1,680 Climbing Chicago Center
12:31AM 42.1522 -87.6658 115° Southeast 303 349 11,300 1,440 Climbing Chicago Center
12:32AM 42.1139 -87.5558 115° Southeast 321 369 12,600 1,380 Climbing Chicago Center
12:33AM 42.0667 -87.4436 120° Southeast 342 394 14,100 1,440 Climbing Chicago Center
12:34AM 42.0125 -87.3319 123° Southeast 355 409 15,600 1,320 Climbing Chicago Center
12:35AM 41.9592 -87.2172 122° Southeast 361 415 16,900 1,500 Climbing Chicago Center
12:36AM 41.9047 -87.1028 123° Southeast 364 419 18,700 1,620 Climbing Chicago Center
12:37AM 41.8508 -86.9875 122° Southeast 365 420 20,300 1,620 Climbing Chicago Center
12:38AM 41.7858 -86.8847 130° Southeast 362 417 22,000 1,320 Climbing Chicago Center
12:39AM 41.7144 -86.7844 134° Southeast 369 425 23,000 480 Climbing Chicago Center
12:40AM 41.6331 -86.6628 132° Southeast 398 458 23,000  Level Chicago Center
12:41AM 41.5494 -86.5408 132° Southeast 437 503 23,000  Level Chicago Center
12:42AM 41.4633 -86.4164 133° Southeast 456 525 23,000  Level Chicago Center
12:43AM 41.3756 -86.2883 132° Southeast 467 537 23,000  Level Chicago Center
12:44AM 41.2892 -86.1636 133° Southeast 462 532 23,000  Level Chicago Center
12:45AM 41.2042 -86.0397 132° Southeast 459 528 23,000  Level Chicago Center
12:46AM 41.1194 -85.9183 133° Southeast 454 522 23,000 -180 Level Chicago Center
12:47AM 41.0342 -85.7958 133° Southeast 455 524 22,700 -1,620 Descending Chicago Center
12:48AM 40.9531 -85.6800 133° Southeast 437 503 19,800 -3,360 Descending Chicago Center
12:49AM 40.8594 -85.5481 133° Southeast 417 480 16,000 -3,480 Descending Chicago Center
12:50AM 40.7842 -85.4408 133° Southeast 404 465 12,900 -2,460 Descending Chicago Center
12:51AM 40.7086 -85.3358 133° Southeast 398 458 11,000 -960 Descending Chicago Center
12:52AM 40.6414 -85.2361 132° Southeast 396 456 11,000  Level Chicago Center
12:53AM 40.5675 -85.1347 134° Southeast 387 445 11,000  Level Chicago Center
12:54AM 40.5058 -85.0503 134° Southeast 393 452 11,000  Level Indianapolis Center
12:55AM 40.4308 -84.9461 133° Southeast 393 452 11,000 -60 Level Indianapolis Center
12:56AM 40.3497 -84.8358 134° Southeast 392 451 10,900 -600 Descending Indianapolis Center
12:57AM 40.2875 -84.7475 133° Southeast 334 384 9,800 -1,800 Descending Indianapolis Center
12:58AM 40.2314 -84.6686 133° Southeast 300 345 7,300 -2,400 Descending Indianapolis Center
12:59AM 40.1742 -84.5919 134° Southeast 293 337 5,000 -1,740 Descending Indianapolis Center
01:00AM 40.1222 -84.5206 134° Southeast 278 320 3,900 -1,020 Descending Indianapolis Center
01:01AM 40.0681 -84.4469 134° Southeast 276 318 3,000 -540 Descending Indianapolis Center
01:02AM 40.0147 -84.3719 133° Southeast 278 320 2,900 -60 Descending Indianapolis Center
01:03AM 40.0094 -84.2789 94° East 272 313 2,900 -360 Level Indianapolis Center
01:04AM 39.9861 -84.2144 115° Southeast 223 257 2,200 -720 Descending Indianapolis Center
01:05AM 39.9533 -84.2136 179° South 157 181 1,800 -660 Descending Indianapolis Center